createdAt,value
2018-02-02T00:00:38.319Z,14.20
2018-02-02T00:01:38.272Z,14.60
2018-02-02T00:02:38.222Z,14.80
2018-02-02T00:03:38.176Z,19.10
2018-02-02T00:04:38.128Z,14.30
2018-02-02T00:05:38.077Z,14.10
2018-02-02T00:06:38.031Z,18.10
2018-02-02T00:07:37.985Z,16.50
2018-02-02T00:08:37.935Z,15.60
2018-02-02T00:09:37.886Z,14.80
2018-02-02T00:10:37.836Z,15.60
2018-02-02T00:11:37.798Z,14.00
2018-02-02T00:12:37.740Z,14.40
2018-02-02T00:13:37.697Z,13.50
2018-02-02T00:14:37.648Z,16.80
2018-02-02T00:15:37.597Z,18.40
2018-02-02T00:16:37.550Z,16.90
2018-02-02T00:17:37.501Z,15.10
2018-02-02T00:18:37.454Z,16.90
2018-02-02T00:19:37.414Z,14.40
2018-02-02T00:20:37.356Z,17.40
2018-02-02T00:21:37.305Z,16.80
2018-02-02T00:22:37.262Z,17.80
2018-02-02T00:23:37.209Z,17.20
2018-02-02T00:24:37.162Z,15.90
2018-02-02T00:25:37.113Z,14.60
2018-02-02T00:26:37.066Z,18.30
2018-02-02T00:27:37.024Z,16.90
2018-02-02T00:28:36.975Z,15.10
2018-02-02T00:29:36.931Z,16.80
2018-02-02T00:30:36.875Z,17.30
2018-02-02T00:31:36.826Z,19.60
2018-02-02T00:32:36.777Z,15.70
2018-02-02T00:33:36.727Z,17.10
2018-02-02T00:34:36.679Z,15.40
2018-02-02T00:35:36.631Z,15.90
2018-02-02T00:36:36.583Z,17.80
2018-02-02T00:37:36.538Z,18.50
2018-02-02T00:38:36.486Z,14.90
2018-02-02T00:39:36.441Z,19.20
2018-02-02T00:40:36.392Z,16.80
2018-02-02T00:41:36.344Z,15.80
2018-02-02T00:42:36.295Z,17.80
2018-02-02T00:43:36.247Z,16.80
2018-02-02T00:44:36.196Z,17.90
2018-02-02T00:45:36.152Z,14.80
2018-02-02T00:46:36.102Z,18.00
2018-02-02T00:47:36.051Z,16.30
2018-02-02T00:48:36.006Z,15.20
2018-02-02T00:49:35.959Z,19.80
2018-02-02T00:50:35.910Z,17.00
2018-02-02T00:51:35.861Z,16.10
2018-02-02T00:52:35.813Z,16.80
2018-02-02T00:53:35.765Z,17.60
2018-02-02T00:54:35.718Z,16.60
2018-02-02T00:55:35.670Z,16.00
2018-02-02T00:56:35.626Z,17.90
2018-02-02T00:57:35.574Z,15.00
2018-02-02T00:58:35.525Z,15.70
2018-02-02T00:59:35.479Z,18.00
2018-02-02T01:00:35.428Z,17.10
2018-02-02T01:01:35.381Z,16.40
2018-02-02T01:02:35.333Z,15.40
2018-02-02T01:03:35.286Z,15.30
2018-02-02T01:04:35.236Z,16.80
2018-02-02T01:05:35.190Z,16.10
2018-02-02T01:06:35.140Z,17.70
2018-02-02T01:07:35.089Z,18.60
2018-02-02T01:08:35.041Z,14.20
2018-02-02T01:09:34.994Z,18.10
2018-02-02T01:10:34.945Z,16.00
2018-02-02T01:11:34.897Z,15.80
2018-02-02T01:12:34.849Z,14.00
2018-02-02T01:13:34.801Z,14.80
2018-02-02T01:14:34.752Z,13.80
2018-02-02T01:15:34.714Z,17.50
2018-02-02T01:16:34.660Z,19.20
2018-02-02T01:17:34.611Z,19.50
2018-02-02T01:18:34.564Z,16.90
2018-02-02T01:19:34.517Z,19.20
2018-02-02T01:20:34.468Z,21.60
2018-02-02T01:21:34.420Z,17.30
2018-02-02T01:22:34.371Z,19.90
2018-02-02T01:23:34.322Z,21.50
2018-02-02T01:24:34.273Z,23.30
2018-02-02T01:25:34.234Z,16.90
2018-02-02T01:26:34.179Z,19.70
2018-02-02T01:27:34.131Z,15.30
2018-02-02T01:28:34.082Z,15.80
2018-02-02T01:29:34.037Z,15.40
2018-02-02T01:30:33.984Z,17.80
2018-02-02T01:31:33.938Z,15.00
2018-02-02T01:32:33.928Z,17.80
2018-02-02T01:33:33.962Z,19.00
2018-02-02T01:34:33.793Z,16.80
2018-02-02T01:35:33.747Z,17.40
2018-02-02T01:36:33.704Z,16.10
2018-02-02T01:37:33.649Z,19.80
2018-02-02T01:38:33.607Z,18.00
2018-02-02T01:39:33.555Z,14.80
2018-02-02T01:40:33.513Z,15.20
2018-02-02T01:41:33.459Z,16.20
2018-02-02T01:42:33.412Z,17.40
2018-02-02T01:43:33.363Z,18.50
2018-02-02T01:44:33.318Z,15.20
2018-02-02T01:45:33.268Z,17.50
2018-02-02T01:46:33.219Z,18.10
2018-02-02T01:47:33.171Z,18.90
2018-02-02T01:48:33.127Z,15.60
2018-02-02T01:49:33.076Z,20.50
2018-02-02T01:50:33.027Z,18.10
2018-02-02T01:51:32.982Z,19.00
2018-02-02T01:52:32.934Z,16.00
2018-02-02T01:53:32.885Z,21.40
2018-02-02T01:54:32.838Z,18.90
2018-02-02T01:55:32.795Z,18.10
2018-02-02T01:56:32.940Z,18.60
2018-02-02T01:57:32.799Z,19.00
2018-02-02T01:58:32.645Z,16.80
2018-02-02T01:59:32.601Z,18.90
2018-02-02T02:00:32.551Z,18.80
2018-02-02T02:01:32.500Z,18.80
2018-02-02T02:02:32.453Z,17.80
2018-02-02T02:03:32.406Z,19.30
2018-02-02T02:04:32.360Z,18.10
2018-02-02T02:05:32.309Z,20.80
2018-02-02T02:06:32.262Z,17.50
2018-02-02T02:07:32.215Z,17.30
2018-02-02T02:08:32.165Z,20.00
2018-02-02T02:09:32.121Z,17.80
2018-02-02T02:10:32.070Z,21.70
2018-02-02T02:11:32.023Z,19.50
2018-02-02T02:12:31.977Z,19.30
2018-02-02T02:13:31.929Z,17.40
2018-02-02T02:14:31.881Z,17.90
2018-02-02T02:15:31.835Z,19.70
2018-02-02T02:16:31.788Z,19.70
2018-02-02T02:17:31.737Z,18.00
2018-02-02T02:18:31.691Z,19.00
2018-02-02T02:19:31.649Z,17.80
2018-02-02T02:20:31.595Z,21.20
2018-02-02T02:21:31.544Z,20.40
2018-02-02T02:22:31.497Z,19.80
2018-02-02T02:23:31.449Z,21.80
2018-02-02T02:24:31.401Z,21.30
2018-02-02T02:25:31.353Z,19.30
2018-02-02T02:26:31.304Z,21.60
2018-02-02T02:27:31.261Z,22.60
2018-02-02T02:28:31.207Z,20.90
2018-02-02T02:29:31.162Z,24.10
2018-02-02T02:30:31.115Z,26.50
2018-02-02T02:31:31.065Z,26.30
2018-02-02T02:32:31.029Z,24.30
2018-02-02T02:33:30.969Z,24.50
2018-02-02T02:34:30.920Z,29.20
2018-02-02T02:35:30.874Z,23.70
2018-02-02T02:36:30.829Z,27.20
2018-02-02T02:37:30.777Z,26.80
2018-02-02T02:38:30.733Z,26.30
2018-02-02T02:39:30.680Z,26.80
2018-02-02T02:40:30.633Z,29.30
2018-02-02T02:41:30.584Z,29.00
2018-02-02T02:42:30.539Z,26.20
2018-02-02T02:43:30.501Z,25.20
2018-02-02T02:44:30.444Z,26.20
2018-02-02T02:45:30.405Z,26.80
2018-02-02T02:46:30.344Z,27.50
2018-02-02T02:47:30.300Z,31.30
2018-02-02T02:48:30.250Z,26.80
2018-02-02T02:49:30.206Z,27.30
2018-02-02T02:50:30.154Z,28.50
2018-02-02T02:51:30.107Z,23.50
2018-02-02T02:52:30.055Z,27.80
2018-02-02T02:53:30.017Z,26.70
2018-02-02T02:54:29.963Z,26.70
2018-02-02T02:55:29.911Z,26.70
2018-02-02T02:56:29.862Z,31.50
2018-02-02T02:57:29.816Z,28.10
2018-02-02T02:58:29.766Z,29.80
2018-02-02T02:59:29.716Z,28.20
2018-02-02T03:00:29.671Z,30.10
2018-02-02T03:01:29.619Z,29.60
2018-02-02T03:02:29.576Z,31.00
2018-02-02T03:03:29.525Z,26.70
2018-02-02T03:04:29.476Z,30.60
2018-02-02T03:05:29.432Z,28.10
2018-02-02T03:06:29.385Z,27.10
2018-02-02T03:07:29.334Z,32.50
2018-02-02T03:08:29.289Z,33.40
2018-02-02T03:09:29.233Z,31.60
2018-02-02T03:10:29.185Z,28.50
2018-02-02T03:11:29.140Z,32.10
2018-02-02T03:12:29.087Z,33.00
2018-02-02T03:13:29.040Z,30.90
2018-02-02T03:14:28.994Z,32.40
2018-02-02T03:15:28.983Z,36.70
2018-02-02T03:16:28.894Z,34.60
2018-02-02T03:17:28.885Z,32.00
2018-02-02T03:18:28.798Z,32.80
2018-02-02T03:19:28.746Z,34.50
2018-02-02T03:20:28.700Z,38.20
2018-02-02T03:21:28.651Z,32.10
2018-02-02T03:22:28.602Z,35.30
2018-02-02T03:23:28.559Z,34.10
2018-02-02T03:24:28.508Z,33.00
2018-02-02T03:25:28.458Z,34.70
2018-02-02T03:26:28.416Z,37.30
2018-02-02T03:27:28.359Z,35.60
2018-02-02T03:28:28.309Z,32.50
2018-02-02T03:29:28.265Z,37.70
2018-02-02T03:30:28.214Z,36.20
2018-02-02T03:31:28.164Z,38.30
2018-02-02T03:32:28.119Z,34.80
2018-02-02T03:33:28.072Z,36.40
2018-02-02T03:34:28.019Z,36.20
2018-02-02T03:35:27.974Z,38.40
2018-02-02T03:36:27.931Z,41.40
2018-02-02T03:37:27.895Z,35.40
2018-02-02T03:38:27.827Z,39.70
2018-02-02T03:39:27.780Z,39.80
2018-02-02T03:40:27.731Z,38.40
2018-02-02T03:41:27.679Z,37.60
2018-02-02T03:42:27.635Z,41.70
2018-02-02T03:43:27.587Z,42.60
2018-02-02T03:44:27.536Z,40.10
2018-02-02T03:45:27.499Z,41.10
2018-02-02T03:46:27.442Z,38.70
2018-02-02T03:47:27.392Z,43.30
2018-02-02T03:48:27.346Z,42.20
2018-02-02T03:49:27.292Z,38.50
2018-02-02T03:50:27.243Z,39.40
2018-02-02T03:51:27.197Z,40.20
2018-02-02T03:52:27.147Z,41.70
2018-02-02T03:53:27.099Z,41.60
2018-02-02T03:54:27.049Z,41.70
2018-02-02T03:55:27.003Z,42.20
2018-02-02T03:56:26.956Z,39.90
2018-02-02T03:57:26.905Z,41.00
2018-02-02T03:58:26.857Z,43.60
2018-02-02T03:59:26.810Z,42.50
2018-02-02T04:00:26.762Z,45.40
2018-02-02T04:01:26.710Z,44.00
2018-02-02T04:02:26.667Z,43.00
2018-02-02T04:03:26.621Z,43.60
2018-02-02T04:04:26.585Z,38.10
2018-02-02T04:05:26.518Z,43.50
2018-02-02T04:06:26.468Z,41.80
2018-02-02T04:07:26.426Z,39.50
2018-02-02T04:08:26.373Z,39.70
2018-02-02T04:09:26.336Z,44.90
2018-02-02T04:10:26.279Z,41.70
2018-02-02T04:11:26.233Z,41.80
2018-02-02T04:12:26.182Z,44.30
2018-02-02T04:13:26.131Z,43.30
2018-02-02T04:14:26.091Z,40.20
2018-02-02T04:15:26.038Z,46.60
2018-02-02T04:16:25.985Z,42.90
2018-02-02T04:17:25.936Z,42.70
2018-02-02T04:18:25.896Z,40.00
2018-02-02T04:19:25.845Z,42.30
2018-02-02T04:20:25.795Z,44.70
2018-02-02T04:21:25.746Z,41.30
2018-02-02T04:22:25.699Z,44.30
2018-02-02T04:23:25.647Z,43.90
2018-02-02T04:24:25.603Z,40.80
2018-02-02T04:25:25.562Z,42.40
2018-02-02T04:26:25.503Z,44.50
2018-02-02T04:27:25.469Z,39.90
2018-02-02T04:28:25.408Z,46.60
2018-02-02T04:29:25.360Z,42.80
2018-02-02T04:30:25.315Z,44.80
2018-02-02T04:31:25.269Z,43.90
2018-02-02T04:32:25.217Z,39.70
2018-02-02T04:33:25.167Z,40.10
2018-02-02T04:34:25.119Z,42.80
2018-02-02T04:35:25.073Z,40.50
2018-02-02T04:36:25.024Z,42.00
2018-02-02T04:37:24.973Z,37.90
2018-02-02T04:38:24.928Z,39.50
2018-02-02T04:39:24.875Z,35.60
2018-02-02T04:40:24.881Z,36.30
2018-02-02T04:41:24.779Z,36.00
2018-02-02T04:42:24.731Z,37.20
2018-02-02T04:43:24.686Z,33.90
2018-02-02T04:44:24.638Z,35.80
2018-02-02T04:45:24.586Z,33.30
2018-02-02T04:46:24.540Z,37.30
2018-02-02T04:47:24.492Z,31.60
2018-02-02T04:48:24.445Z,35.60
2018-02-02T04:49:24.396Z,36.60
2018-02-02T04:50:24.350Z,35.10
2018-02-02T04:51:24.301Z,36.30
2018-02-02T04:52:24.253Z,37.80
2018-02-02T04:53:24.203Z,42.00
2018-02-02T04:54:24.158Z,31.90
2018-02-02T04:55:24.109Z,33.50
2018-02-02T04:56:24.058Z,29.40
2018-02-02T04:57:24.009Z,29.80
2018-02-02T04:58:23.961Z,31.60
2018-02-02T04:59:23.915Z,32.00
2018-02-02T05:00:23.868Z,32.10
2018-02-02T05:01:23.819Z,34.10
2018-02-02T05:02:23.770Z,32.10
2018-02-02T05:03:23.721Z,31.70
2018-02-02T05:04:23.674Z,30.70
2018-02-02T05:05:23.626Z,30.40
2018-02-02T05:06:23.579Z,35.20
2018-02-02T05:07:23.530Z,30.60
2018-02-02T05:08:23.485Z,31.00
2018-02-02T05:09:23.433Z,28.60
2018-02-02T05:10:23.388Z,31.30
2018-02-02T05:11:23.355Z,34.50
2018-02-02T05:12:23.294Z,29.40
2018-02-02T05:13:23.283Z,32.60
2018-02-02T05:14:23.194Z,32.50
2018-02-02T05:15:23.145Z,30.70
2018-02-02T05:16:23.095Z,29.40
2018-02-02T05:17:23.048Z,31.80
2018-02-02T05:18:23.006Z,29.40
2018-02-02T05:19:22.952Z,30.00
2018-02-02T05:20:22.908Z,32.70
2018-02-02T05:21:22.855Z,32.40
2018-02-02T05:22:22.811Z,31.20
2018-02-02T05:23:22.763Z,31.30
2018-02-02T05:24:22.713Z,29.40
2018-02-02T05:25:22.664Z,30.20
2018-02-02T05:26:22.618Z,26.90
2018-02-02T05:27:22.571Z,29.00
2018-02-02T05:28:22.522Z,32.60
2018-02-02T05:29:22.476Z,34.40
2018-02-02T05:30:22.424Z,30.20
2018-02-02T05:31:22.380Z,31.80
2018-02-02T05:32:22.331Z,32.10
2018-02-02T05:33:22.283Z,30.10
2018-02-02T05:34:22.255Z,33.30
2018-02-02T05:35:22.195Z,37.90
2018-02-02T05:36:22.143Z,32.40
2018-02-02T05:37:22.098Z,38.70
2018-02-02T05:38:22.044Z,34.40
2018-02-02T05:39:21.994Z,31.40
2018-02-02T05:40:21.949Z,31.70
2018-02-02T05:41:21.899Z,31.80
2018-02-02T05:42:21.849Z,32.00
2018-02-02T05:43:21.806Z,32.00
2018-02-02T05:44:21.756Z,34.70
2018-02-02T05:45:21.711Z,34.50
2018-02-02T05:46:21.659Z,32.40
2018-02-02T05:47:21.610Z,29.20
2018-02-02T05:48:21.565Z,31.90
2018-02-02T05:49:21.514Z,36.00
2018-02-02T05:50:21.472Z,29.50
2018-02-02T05:51:21.420Z,33.20
2018-02-02T05:52:21.372Z,33.90
2018-02-02T05:53:21.323Z,34.10
2018-02-02T05:54:21.277Z,31.00
2018-02-02T05:55:21.228Z,31.70
2018-02-02T05:56:21.183Z,32.70
2018-02-02T05:57:21.139Z,33.70
2018-02-02T05:58:21.084Z,31.20
2018-02-02T05:59:21.037Z,36.00
2018-02-02T06:00:20.989Z,39.60
2018-02-02T06:01:20.949Z,37.80
2018-02-02T06:02:20.900Z,34.60
2018-02-02T06:03:20.848Z,32.60
2018-02-02T06:04:20.799Z,29.40
2018-02-02T06:05:20.750Z,33.10
2018-02-02T06:06:20.709Z,31.30
2018-02-02T06:07:20.654Z,32.60
2018-02-02T06:08:20.608Z,33.80
2018-02-02T06:09:20.562Z,30.80
2018-02-02T06:10:20.514Z,34.50
2018-02-02T06:11:20.462Z,30.60
2018-02-02T06:12:20.416Z,31.10
2018-02-02T06:13:20.370Z,32.00
2018-02-02T06:14:20.322Z,31.00
2018-02-02T06:15:20.274Z,32.00
2018-02-02T06:16:20.225Z,30.00
2018-02-02T06:17:20.177Z,35.30
2018-02-02T06:18:20.128Z,34.40
2018-02-02T06:19:20.080Z,29.70
2018-02-02T06:20:20.033Z,29.70
2018-02-02T06:21:19.983Z,35.70
2018-02-02T06:22:19.937Z,30.90
2018-02-02T06:23:19.889Z,34.90
2018-02-02T06:24:19.840Z,30.20
2018-02-02T06:25:19.821Z,32.50
2018-02-02T06:26:19.746Z,33.10
2018-02-02T06:27:19.699Z,32.60
2018-02-02T06:28:19.653Z,37.10
2018-02-02T06:29:19.603Z,29.00
2018-02-02T06:30:19.554Z,30.10
2018-02-02T06:31:19.508Z,29.00
2018-02-02T06:32:19.460Z,32.20
2018-02-02T06:33:19.411Z,30.40
2018-02-02T06:34:19.390Z,31.20
2018-02-02T06:35:19.315Z,30.50
2018-02-02T06:36:19.268Z,30.50
2018-02-02T06:37:19.222Z,33.70
2018-02-02T06:38:19.173Z,29.70
2018-02-02T06:39:19.123Z,30.20
2018-02-02T06:40:19.083Z,33.80
2018-02-02T06:41:19.031Z,33.90
2018-02-02T06:42:18.982Z,34.30
2018-02-02T06:43:18.931Z,27.70
2018-02-02T06:44:18.885Z,30.60
2018-02-02T06:45:18.838Z,31.40
2018-02-02T06:46:18.792Z,26.80
2018-02-02T06:47:18.743Z,27.60
2018-02-02T06:48:18.694Z,25.60
2018-02-02T06:49:18.653Z,34.10
2018-02-02T06:50:18.602Z,28.00
2018-02-02T06:51:18.599Z,27.90
2018-02-02T06:52:18.513Z,30.00
2018-02-02T06:53:18.456Z,27.00
2018-02-02T06:54:18.414Z,27.40
2018-02-02T06:55:18.358Z,30.50
2018-02-02T06:56:18.318Z,27.60
2018-02-02T06:57:18.263Z,27.70
2018-02-02T06:58:18.220Z,30.90
2018-02-02T06:59:18.175Z,32.00
2018-02-02T07:00:18.124Z,32.20
2018-02-02T07:01:18.072Z,32.90
2018-02-02T07:02:18.025Z,25.60
2018-02-02T07:03:17.977Z,29.30
2018-02-02T07:04:17.933Z,29.90
2018-02-02T07:05:17.884Z,27.60
2018-02-02T07:06:17.835Z,25.20
2018-02-02T07:07:17.786Z,32.30
2018-02-02T07:08:17.738Z,30.00
2018-02-02T07:09:17.690Z,24.50
2018-02-02T07:10:17.643Z,28.80
2018-02-02T07:11:17.596Z,26.90
2018-02-02T07:12:17.547Z,27.80
2018-02-02T07:13:17.500Z,28.90
2018-02-02T07:14:17.456Z,26.10
2018-02-02T07:15:17.409Z,28.20
2018-02-02T07:16:17.359Z,27.60
2018-02-02T07:17:17.317Z,32.30
2018-02-02T07:18:17.259Z,27.00
2018-02-02T07:19:17.213Z,30.40
2018-02-02T07:20:17.167Z,30.50
2018-02-02T07:21:17.119Z,30.80
2018-02-02T07:22:17.075Z,28.40
2018-02-02T07:23:17.022Z,26.90
2018-02-02T07:24:16.974Z,30.80
2018-02-02T07:25:16.927Z,25.90
2018-02-02T07:27:16.842Z,23.80
2018-02-02T07:28:16.787Z,26.60
2018-02-02T07:29:16.737Z,26.20
2018-02-02T07:30:16.686Z,25.70
2018-02-02T07:31:16.640Z,28.40
2018-02-02T07:32:16.594Z,24.00
2018-02-02T07:33:16.545Z,26.50
2018-02-02T07:34:16.507Z,23.50
2018-02-02T07:35:16.450Z,25.10
2018-02-02T07:36:16.400Z,24.80
2018-02-02T07:37:16.354Z,25.50
2018-02-02T07:38:16.310Z,26.60
2018-02-02T07:39:16.258Z,22.70
2018-02-02T07:40:16.217Z,26.80
2018-02-02T07:41:16.165Z,24.40
2018-02-02T07:42:16.115Z,23.50
2018-02-02T07:43:16.068Z,24.10
2018-02-02T07:44:16.022Z,26.80
2018-02-02T07:45:15.973Z,24.30
2018-02-02T07:46:15.926Z,24.50
2018-02-02T07:47:15.880Z,27.50
2018-02-02T07:48:15.827Z,23.40
2018-02-02T07:49:15.786Z,22.90
2018-02-02T07:50:15.733Z,24.80
2018-02-02T07:51:15.688Z,26.40
2018-02-02T07:52:15.640Z,22.00
2018-02-02T07:53:15.595Z,22.10
2018-02-02T07:54:15.544Z,22.20
2018-02-02T07:55:15.500Z,24.70
2018-02-02T07:56:15.450Z,24.40
2018-02-02T07:57:15.400Z,19.40
2018-02-02T07:58:15.354Z,20.90
2018-02-02T07:59:15.307Z,20.80
2018-02-02T08:00:15.305Z,23.40
2018-02-02T08:01:15.215Z,20.80
2018-02-02T08:02:15.164Z,22.20
2018-02-02T08:03:15.116Z,21.90
2018-02-02T08:04:15.067Z,20.00
2018-02-02T08:05:15.018Z,22.50
2018-02-02T08:06:14.974Z,19.80
2018-02-02T08:07:14.949Z,20.80
2018-02-02T08:08:14.881Z,20.30
2018-02-02T08:09:14.834Z,22.60
2018-02-02T08:10:14.786Z,20.90
2018-02-02T08:11:14.735Z,20.30
2018-02-02T08:12:14.688Z,21.20
2018-02-02T08:13:14.642Z,21.00
2018-02-02T08:14:14.590Z,18.80
2018-02-02T08:15:14.543Z,17.80
2018-02-02T08:16:14.498Z,16.30
2018-02-02T08:17:14.450Z,19.20
2018-02-02T08:18:14.400Z,19.20
2018-02-02T08:19:14.356Z,15.50
2018-02-02T08:20:14.310Z,19.90
2018-02-02T08:21:14.259Z,17.40
2018-02-02T08:22:14.212Z,18.50
2018-02-02T08:23:14.162Z,23.20
2018-02-02T08:24:14.116Z,18.10
2018-02-02T08:25:14.067Z,19.10
2018-02-02T08:26:14.022Z,20.70
2018-02-02T08:27:13.974Z,18.70
2018-02-02T08:28:13.928Z,21.40
2018-02-02T08:29:13.880Z,18.60
2018-02-02T08:30:13.829Z,18.50
2018-02-02T08:31:13.782Z,16.90
2018-02-02T08:32:13.739Z,17.30
2018-02-02T08:33:13.686Z,16.70
2018-02-02T08:34:13.638Z,18.00
2018-02-02T08:35:13.594Z,18.70
2018-02-02T08:36:13.544Z,21.10
2018-02-02T08:37:13.500Z,15.40
2018-02-02T08:38:13.452Z,17.50
2018-02-02T08:39:13.405Z,16.50
2018-02-02T08:40:13.357Z,15.60
2018-02-02T08:41:13.307Z,15.90
2018-02-02T08:42:13.259Z,20.10
2018-02-02T08:43:13.213Z,19.30
2018-02-02T08:44:13.164Z,16.50
2018-02-02T08:45:13.121Z,15.00
2018-02-02T08:46:13.067Z,16.60
2018-02-02T08:47:13.072Z,15.60
2018-02-02T08:48:12.975Z,17.40
2018-02-02T08:49:12.923Z,17.10
2018-02-02T08:50:12.876Z,17.90
2018-02-02T08:51:12.833Z,15.40
2018-02-02T08:52:12.783Z,15.70
2018-02-02T08:53:12.733Z,19.00
2018-02-02T08:54:12.686Z,13.70
2018-02-02T08:55:12.638Z,15.40
2018-02-02T08:56:12.591Z,13.90
2018-02-02T08:57:12.544Z,14.90
2018-02-02T08:58:12.495Z,15.00
2018-02-02T08:59:12.448Z,15.20
2018-02-02T09:00:12.400Z,15.20
2018-02-02T09:01:12.355Z,14.20
2018-02-02T09:02:12.308Z,14.70
2018-02-02T09:03:12.259Z,14.20
2018-02-02T09:04:12.211Z,14.80
2018-02-02T09:05:12.167Z,14.50
2018-02-02T09:06:12.114Z,14.10
2018-02-02T09:07:12.070Z,13.20
2018-02-02T09:08:12.020Z,12.60
2018-02-02T09:09:11.970Z,13.10
2018-02-02T09:10:11.925Z,13.90
2018-02-02T09:11:11.875Z,11.70
2018-02-02T09:12:11.834Z,13.40
2018-02-02T09:13:11.781Z,12.70
2018-02-02T09:14:11.742Z,15.90
2018-02-02T09:15:11.684Z,17.10
2018-02-02T09:16:11.638Z,15.10
2018-02-02T09:17:11.592Z,15.50
2018-02-02T09:18:11.543Z,15.70
2018-02-02T09:19:11.500Z,14.50
2018-02-02T09:20:11.451Z,14.90
2018-02-02T09:21:11.398Z,15.40
2018-02-02T09:22:11.353Z,16.20
2018-02-02T09:23:11.306Z,15.30
2018-02-02T09:24:11.256Z,15.40
2018-02-02T09:25:11.208Z,17.10
2018-02-02T09:26:11.161Z,15.90
2018-02-02T09:27:11.111Z,15.60
2018-02-02T09:28:11.067Z,17.60
2018-02-02T09:29:11.019Z,14.70
2018-02-02T09:30:10.968Z,15.60
2018-02-02T09:31:10.926Z,18.30
2018-02-02T09:32:10.877Z,16.90
2018-02-02T09:33:10.823Z,16.80
2018-02-02T09:34:10.779Z,15.20
2018-02-02T09:35:10.733Z,17.40
2018-02-02T09:36:10.682Z,16.10
2018-02-02T09:37:10.636Z,16.60
2018-02-02T09:38:10.586Z,16.40
2018-02-02T09:39:10.539Z,16.10
2018-02-02T09:40:10.500Z,17.60
2018-02-02T09:41:10.444Z,20.00
2018-02-02T09:42:10.395Z,17.20
2018-02-02T09:43:10.353Z,19.00
2018-02-02T09:44:10.307Z,17.80
2018-02-02T09:45:10.253Z,19.40
2018-02-02T09:46:10.208Z,18.10
2018-02-02T09:47:10.158Z,19.40
2018-02-02T09:48:10.113Z,17.00
2018-02-02T09:49:10.065Z,17.90
2018-02-02T09:50:10.019Z,18.40
2018-02-02T09:51:09.975Z,19.40
2018-02-02T09:52:09.924Z,15.90
2018-02-02T09:53:09.875Z,16.60
2018-02-02T09:54:09.831Z,17.70
2018-02-02T09:55:09.778Z,19.70
2018-02-02T09:56:09.738Z,16.60
2018-02-02T09:57:09.715Z,16.70
2018-02-02T09:58:09.644Z,17.60
2018-02-02T09:59:09.686Z,16.90
2018-02-02T10:00:09.642Z,17.40
2018-02-02T10:01:09.661Z,16.00
2018-02-02T10:02:09.503Z,14.50
2018-02-02T10:03:09.495Z,14.30
2018-02-02T10:04:09.392Z,14.80
2018-02-02T10:05:09.313Z,15.90
2018-02-02T10:06:09.258Z,14.30
2018-02-02T10:07:09.213Z,16.80
2018-02-02T10:08:09.160Z,15.80
2018-02-02T10:09:09.112Z,18.00
2018-02-02T10:10:09.070Z,18.30
2018-02-02T10:11:09.019Z,18.50
2018-02-02T10:12:08.975Z,19.60
2018-02-02T10:13:08.927Z,20.40
2018-02-02T10:14:08.875Z,18.20
2018-02-02T10:15:08.827Z,23.00
2018-02-02T10:16:08.784Z,21.20
2018-02-02T10:17:08.736Z,22.50
2018-02-02T10:18:08.687Z,22.40
2018-02-02T10:19:08.642Z,20.10
2018-02-02T10:20:08.589Z,21.90
2018-02-02T10:21:08.543Z,21.20
2018-02-02T10:22:08.500Z,26.10
2018-02-02T10:23:08.454Z,20.50
2018-02-02T10:24:08.406Z,23.10
2018-02-02T10:25:08.353Z,21.10
2018-02-02T10:27:08.260Z,21.60
2018-02-02T10:28:08.213Z,21.20
2018-02-02T10:29:08.168Z,22.10
2018-02-02T10:30:08.116Z,21.30
2018-02-02T10:31:08.070Z,22.90
2018-02-02T10:32:08.030Z,23.50
2018-02-02T10:33:07.979Z,23.40
2018-02-02T10:34:07.929Z,23.80
2018-02-02T10:35:07.883Z,22.30
2018-02-02T10:36:07.835Z,23.40
2018-02-02T10:37:07.789Z,25.10
2018-02-02T10:38:07.740Z,25.50
2018-02-02T10:39:07.693Z,24.40
2018-02-02T10:40:07.665Z,23.30
2018-02-02T10:41:07.604Z,24.80
2018-02-02T10:42:07.549Z,26.60
2018-02-02T10:43:07.502Z,23.70
2018-02-02T10:44:07.459Z,26.60
2018-02-02T10:45:07.408Z,25.00
2018-02-02T10:46:07.364Z,25.10
2018-02-02T10:47:07.320Z,21.70
2018-02-02T10:48:07.270Z,23.60
2018-02-02T10:49:07.220Z,23.10
2018-02-02T10:50:07.174Z,24.10
2018-02-02T10:51:07.130Z,25.80
2018-02-02T10:52:07.090Z,24.90
2018-02-02T10:53:07.036Z,23.60
2018-02-02T10:54:06.985Z,25.10
2018-02-02T10:55:06.938Z,25.30
2018-02-02T10:56:06.891Z,24.20
2018-02-02T10:57:06.847Z,25.30
2018-02-02T10:58:06.797Z,23.20
2018-02-02T10:59:06.747Z,24.40
2018-02-02T11:00:06.709Z,24.40
2018-02-02T11:01:06.656Z,23.70
2018-02-02T11:02:06.612Z,23.80
2018-02-02T11:03:06.561Z,25.00
2018-02-02T11:04:06.518Z,21.80
2018-02-02T11:05:06.470Z,26.20
2018-02-02T11:06:06.423Z,24.00
2018-02-02T11:07:06.373Z,26.90
2018-02-02T11:08:06.328Z,24.40
2018-02-02T11:09:06.279Z,25.00
2018-02-02T11:10:06.237Z,28.20
2018-02-02T11:11:06.184Z,26.40
2018-02-02T11:12:06.142Z,31.30
2018-02-02T11:13:06.097Z,27.80
2018-02-02T11:14:06.044Z,28.80
2018-02-02T11:15:06.003Z,25.50
2018-02-02T11:16:05.954Z,29.10
2018-02-02T11:17:05.904Z,28.40
2018-02-02T11:18:05.859Z,32.30
2018-02-02T11:19:05.816Z,32.20
2018-02-02T11:20:05.769Z,28.80
2018-02-02T11:21:05.717Z,27.00
2018-02-02T11:22:05.673Z,27.50
2018-02-02T11:23:05.623Z,25.80
2018-02-02T11:24:05.578Z,25.40
2018-02-02T11:25:05.533Z,16.40
2018-02-02T11:26:05.482Z,13.20
2018-02-02T11:27:05.437Z,13.40
2018-02-02T11:28:05.452Z,12.80
2018-02-02T11:29:05.346Z,8.70
2018-02-02T11:30:05.302Z,9.60
2018-02-02T11:31:05.248Z,11.80
2018-02-02T11:32:05.204Z,9.90
2018-02-02T11:33:05.159Z,7.90
2018-02-02T11:34:05.115Z,9.10
2018-02-02T11:35:05.063Z,10.30
2018-02-02T11:36:05.026Z,8.30
2018-02-02T11:37:04.968Z,8.80
2018-02-02T11:38:04.922Z,7.90
2018-02-02T11:39:04.877Z,7.80
2018-02-02T11:40:04.830Z,10.60
2018-02-02T11:41:04.786Z,7.60
2018-02-02T11:42:04.742Z,6.50
2018-02-02T11:43:04.694Z,9.20
2018-02-02T11:44:04.677Z,6.60
2018-02-02T11:45:04.598Z,8.40
2018-02-02T11:46:04.613Z,7.10
2018-02-02T11:47:04.504Z,6.80
2018-02-02T11:48:04.463Z,7.60
2018-02-02T11:49:04.416Z,8.60
2018-02-02T11:50:04.372Z,7.90
2018-02-02T11:51:04.349Z,6.30
2018-02-02T11:52:04.277Z,7.20
2018-02-02T11:53:04.230Z,10.90
2018-02-02T11:54:04.180Z,8.50
2018-02-02T11:55:04.134Z,8.20
2018-02-02T11:56:04.095Z,8.60
2018-02-02T11:57:04.041Z,9.30
2018-02-02T11:58:03.995Z,7.60
2018-02-02T11:59:03.953Z,9.00
2018-02-02T12:00:03.907Z,10.70
2018-02-02T12:01:03.859Z,7.50
2018-02-02T12:02:03.811Z,11.30
2018-02-02T12:03:03.765Z,6.90
2018-02-02T12:04:03.780Z,7.60
2018-02-02T12:05:03.678Z,9.90
2018-02-02T12:06:03.631Z,8.80
2018-02-02T12:07:03.579Z,6.90
2018-02-02T12:08:03.535Z,9.20
2018-02-02T12:09:03.488Z,11.70
2018-02-02T12:10:03.458Z,12.70
2018-02-02T12:11:03.396Z,11.40
2018-02-02T12:12:03.351Z,11.20
2018-02-02T12:13:03.300Z,13.40
2018-02-02T12:14:03.256Z,11.20
2018-02-02T12:15:03.212Z,8.50
2018-02-02T12:16:03.167Z,11.10
2018-02-02T12:17:03.121Z,9.00
2018-02-02T12:18:03.083Z,12.30
2018-02-02T12:19:03.028Z,12.20
2018-02-02T12:20:02.981Z,15.10
2018-02-02T12:21:02.949Z,10.60
2018-02-02T12:22:02.905Z,10.30
2018-02-02T12:23:02.842Z,11.60
2018-02-02T12:24:02.798Z,11.10
2018-02-02T12:25:02.750Z,11.50
2018-02-02T12:26:02.704Z,10.80
2018-02-02T12:27:02.660Z,11.80
2018-02-02T12:28:02.631Z,13.70
2018-02-02T12:29:02.565Z,11.70
2018-02-02T12:30:02.548Z,13.50
2018-02-02T12:31:02.476Z,14.50
2018-02-02T12:32:02.427Z,12.90
2018-02-02T12:33:02.383Z,13.40
2018-02-02T12:34:02.345Z,11.90
2018-02-02T12:35:02.315Z,9.90
2018-02-02T12:36:02.251Z,11.80
2018-02-02T12:37:02.202Z,14.80
2018-02-02T12:38:02.158Z,9.40
2018-02-02T12:39:02.108Z,13.80
2018-02-02T12:40:02.069Z,11.20
2018-02-02T12:41:02.014Z,11.60
2018-02-02T12:42:01.969Z,9.90
2018-02-02T12:43:01.926Z,11.50
2018-02-02T12:44:04.380Z,11.40
2018-02-02T12:45:01.831Z,11.00
2018-02-02T12:46:01.787Z,10.90
2018-02-02T12:47:01.743Z,12.30
2018-02-02T12:48:01.697Z,11.40
2018-02-02T12:49:01.650Z,13.20
2018-02-02T12:50:01.605Z,10.90
2018-02-02T12:51:01.575Z,13.10
2018-02-02T12:52:01.518Z,11.40
2018-02-02T12:53:01.469Z,10.50
2018-02-02T12:54:01.426Z,10.00
2018-02-02T12:55:01.384Z,13.90